Archival Weather

Chicago O'Hare International

Chicago, Illinois (KORD)

Report from: Thursday, December 29, 2022 5:51 PM CST
Current time: Friday, June 21, 2024 3:47 AM CDT

Current weather – Weather history – Daily summaries
Weather forecast

Temperature13.3°C (55.9°F)
Dew point10.6°C (51.1°F)
Winds 15 kts (7.7 m/s, 17.3 mph) South (180°)
Wind gusts 26 kts (13.4 m/s, 29.9 mph)
Peak wind 26 kts (13.4 m/s, 29.9 mph) South (180°) at 23:18
Visibility10 mi. (16.1 km)
Clouds Ceiling: Broken clouds 1,600 ft. (488 m)
Broken clouds 2,700 ft. (823 m)
Broken clouds 25,000 ft. (7,620 m)
Altimeter29.82 in.Hg (1010 mB)
Relative humidity84 %
Density altitude95 ft. (29 m)
Sea-level pressure101.0 kPa (1010 mB, 29.82 in.Hg)
Max temp last 6 hours15.0°C (59.0°F)
Min temp last 6 hours12.8°C (55.0°F)
Remarks System requires maintenance
Automated weather observing station with precipitation discriminator
Pressure rising more quickly
Flight conditions Marginal Visual Meteorological Conditions
Raw dataKORD 292351Z 18015G26KT 10SM BKN016 BKN027 BKN250 13/11 A2982 RMK AO2 PK WND 18026/2318 SLP098 T01330106 10150 20128 53009 $
An error has occurred. This application may no longer respond until reloaded. Reload 🗙